sensor_id;sensor_type;location;lat;lon;timestamp;P1;durP1;ratioP1;P2;durP2;ratioP2
21543;SDS011;10933;50.754;11.508;2023-07-30T00:00:21;2.67;;;2.47;;
21543;SDS011;10933;50.754;11.508;2023-07-30T00:02:47;2.45;;;2.33;;
21543;SDS011;10933;50.754;11.508;2023-07-30T00:05:14;3.92;;;2.47;;
21543;SDS011;10933;50.754;11.508;2023-07-30T00:07:40;2.95;;;2.75;;
21543;SDS011;10933;50.754;11.508;2023-07-30T00:10:06;2.50;;;2.40;;
21543;SDS011;10933;50.754;11.508;2023-07-30T00:12:32;3.08;;;2.88;;
21543;SDS011;10933;50.754;11.508;2023-07-30T00:14:58;2.70;;;2.50;;
21543;SDS011;10933;50.754;11.508;2023-07-30T00:17:24;2.78;;;2.67;;
21543;SDS011;10933;50.754;11.508;2023-07-30T00:19:50;3.40;;;2.67;;
21543;SDS011;10933;50.754;11.508;2023-07-30T00:22:16;2.72;;;2.40;;
21543;SDS011;10933;50.754;11.508;2023-07-30T00:24:42;2.63;;;2.53;;
21543;SDS011;10933;50.754;11.508;2023-07-30T00:27:09;3.25;;;3.05;;
21543;SDS011;10933;50.754;11.508;2023-07-30T00:29:35;2.40;;;2.30;;
21543;SDS011;10933;50.754;11.508;2023-07-30T00:32:01;2.85;;;2.72;;
21543;SDS011;10933;50.754;11.508;2023-07-30T00:34:27;2.40;;;2.30;;
21543;SDS011;10933;50.754;11.508;2023-07-30T00:36:53;2.88;;;2.67;;
21543;SDS011;10933;50.754;11.508;2023-07-30T00:39:19;2.85;;;2.75;;
21543;SDS011;10933;50.754;11.508;2023-07-30T00:41:46;2.85;;;2.67;;
21543;SDS011;10933;50.754;11.508;2023-07-30T00:44:12;3.05;;;2.80;;
21543;SDS011;10933;50.754;11.508;2023-07-30T00:46:38;3.25;;;3.05;;
21543;SDS011;10933;50.754;11.508;2023-07-30T00:49:04;3.20;;;3.00;;
21543;SDS011;10933;50.754;11.508;2023-07-30T00:51:31;2.78;;;2.50;;
21543;SDS011;10933;50.754;11.508;2023-07-30T00:53:58;2.63;;;2.53;;
21543;SDS011;10933;50.754;11.508;2023-07-30T00:56:25;2.70;;;2.53;;
21543;SDS011;10933;50.754;11.508;2023-07-30T00:58:52;4.10;;;3.90;;
21543;SDS011;10933;50.754;11.508;2023-07-30T01:01:19;3.15;;;2.95;;
21543;SDS011;10933;50.754;11.508;2023-07-30T01:03:45;3.25;;;3.05;;
21543;SDS011;10933;50.754;11.508;2023-07-30T01:06:11;3.05;;;2.85;;
21543;SDS011;10933;50.754;11.508;2023-07-30T01:08:37;3.47;;;2.90;;
21543;SDS011;10933;50.754;11.508;2023-07-30T01:11:04;2.95;;;2.80;;
21543;SDS011;10933;50.754;11.508;2023-07-30T01:13:32;5.80;;;5.28;;
21543;SDS011;10933;50.754;11.508;2023-07-30T01:16:00;11.18;;;10.30;;
21543;SDS011;10933;50.754;11.508;2023-07-30T01:18:26;6.28;;;5.88;;
21543;SDS011;10933;50.754;11.508;2023-07-30T01:20:53;3.83;;;3.63;;
21543;SDS011;10933;50.754;11.508;2023-07-30T01:23:22;9.18;;;8.57;;
21543;SDS011;10933;50.754;11.508;2023-07-30T01:25:48;3.50;;;3.30;;
21543;SDS011;10933;50.754;11.508;2023-07-30T01:28:22;3.00;;;2.80;;
21543;SDS011;10933;50.754;11.508;2023-07-30T01:30:49;3.25;;;3.05;;
21543;SDS011;10933;50.754;11.508;2023-07-30T01:33:16;3.33;;;3.13;;
21543;SDS011;10933;50.754;11.508;2023-07-30T01:35:42;3.42;;;3.22;;
21543;SDS011;10933;50.754;11.508;2023-07-30T01:38:09;3.20;;;2.97;;
21543;SDS011;10933;50.754;11.508;2023-07-30T01:40:36;3.55;;;3.35;;
21543;SDS011;10933;50.754;11.508;2023-07-30T01:43:02;3.72;;;3.17;;
21543;SDS011;10933;50.754;11.508;2023-07-30T01:45:28;3.08;;;2.80;;
21543;SDS011;10933;50.754;11.508;2023-07-30T01:47:54;5.53;;;3.55;;
21543;SDS011;10933;50.754;11.508;2023-07-30T01:50:20;6.10;;;3.08;;
21543;SDS011;10933;50.754;11.508;2023-07-30T01:52:46;3.25;;;3.05;;
21543;SDS011;10933;50.754;11.508;2023-07-30T01:55:13;3.15;;;2.95;;
21543;SDS011;10933;50.754;11.508;2023-07-30T01:57:39;3.70;;;3.47;;
21543;SDS011;10933;50.754;11.508;2023-07-30T02:00:05;3.60;;;3.40;;
21543;SDS011;10933;50.754;11.508;2023-07-30T02:02:31;2.95;;;2.75;;
21543;SDS011;10933;50.754;11.508;2023-07-30T02:05:00;2.80;;;2.60;;
21543;SDS011;10933;50.754;11.508;2023-07-30T02:07:26;3.10;;;2.90;;
21543;SDS011;10933;50.754;11.508;2023-07-30T02:09:52;3.10;;;2.83;;
21543;SDS011;10933;50.754;11.508;2023-07-30T02:12:18;2.65;;;2.47;;
21543;SDS011;10933;50.754;11.508;2023-07-30T02:14:44;3.35;;;3.13;;
21543;SDS011;10933;50.754;11.508;2023-07-30T02:17:11;2.95;;;2.85;;
21543;SDS011;10933;50.754;11.508;2023-07-30T02:19:37;2.95;;;2.83;;
21543;SDS011;10933;50.754;11.508;2023-07-30T02:22:03;3.42;;;3.22;;
21543;SDS011;10933;50.754;11.508;2023-07-30T02:24:29;3.45;;;3.10;;
21543;SDS011;10933;50.754;11.508;2023-07-30T02:26:55;3.10;;;2.90;;
21543;SDS011;10933;50.754;11.508;2023-07-30T02:29:21;3.03;;;2.83;;
21543;SDS011;10933;50.754;11.508;2023-07-30T02:31:47;3.42;;;3.22;;
21543;SDS011;10933;50.754;11.508;2023-07-30T02:34:13;3.40;;;3.20;;
21543;SDS011;10933;50.754;11.508;2023-07-30T02:36:39;3.40;;;3.20;;
21543;SDS011;10933;50.754;11.508;2023-07-30T02:39:06;3.60;;;3.40;;
21543;SDS011;10933;50.754;11.508;2023-07-30T02:41:32;3.22;;;3.03;;
21543;SDS011;10933;50.754;11.508;2023-07-30T02:43:58;3.60;;;3.40;;
21543;SDS011;10933;50.754;11.508;2023-07-30T02:46:24;3.05;;;2.85;;
21543;SDS011;10933;50.754;11.508;2023-07-30T02:48:50;3.67;;;3.40;;
21543;SDS011;10933;50.754;11.508;2023-07-30T02:51:16;3.67;;;3.40;;
21543;SDS011;10933;50.754;11.508;2023-07-30T02:53:42;3.55;;;3.35;;
21543;SDS011;10933;50.754;11.508;2023-07-30T02:56:09;3.63;;;3.33;;
21543;SDS011;10933;50.754;11.508;2023-07-30T02:58:35;4.75;;;3.42;;
21543;SDS011;10933;50.754;11.508;2023-07-30T03:01:08;3.92;;;3.33;;
21543;SDS011;10933;50.754;11.508;2023-07-30T03:03:34;3.70;;;3.50;;
21543;SDS011;10933;50.754;11.508;2023-07-30T03:06:00;3.42;;;3.22;;
21543;SDS011;10933;50.754;11.508;2023-07-30T03:08:26;3.58;;;3.38;;
21543;SDS011;10933;50.754;11.508;2023-07-30T03:10:53;3.72;;;3.53;;
21543;SDS011;10933;50.754;11.508;2023-07-30T03:13:19;3.40;;;3.20;;
21543;SDS011;10933;50.754;11.508;2023-07-30T03:15:46;3.53;;;3.33;;
21543;SDS011;10933;50.754;11.508;2023-07-30T03:18:12;3.53;;;3.33;;
21543;SDS011;10933;50.754;11.508;2023-07-30T03:20:38;3.45;;;3.25;;
21543;SDS011;10933;50.754;11.508;2023-07-30T03:23:04;3.95;;;3.65;;
21543;SDS011;10933;50.754;11.508;2023-07-30T03:25:30;3.45;;;3.25;;
21543;SDS011;10933;50.754;11.508;2023-07-30T03:27:56;3.47;;;3.28;;
21543;SDS011;10933;50.754;11.508;2023-07-30T03:30:23;3.63;;;3.42;;
21543;SDS011;10933;50.754;11.508;2023-07-30T03:32:49;3.80;;;3.60;;
21543;SDS011;10933;50.754;11.508;2023-07-30T03:35:15;3.75;;;3.45;;
21543;SDS011;10933;50.754;11.508;2023-07-30T03:37:41;4.95;;;4.28;;
21543;SDS011;10933;50.754;11.508;2023-07-30T03:40:07;3.88;;;3.60;;
21543;SDS011;10933;50.754;11.508;2023-07-30T03:42:33;4.28;;;3.80;;
21543;SDS011;10933;50.754;11.508;2023-07-30T03:44:59;6.53;;;3.70;;
21543;SDS011;10933;50.754;11.508;2023-07-30T03:47:26;3.75;;;3.55;;
21543;SDS011;10933;50.754;11.508;2023-07-30T03:49:52;4.38;;;4.07;;
21543;SDS011;10933;50.754;11.508;2023-07-30T03:52:18;3.88;;;3.58;;
21543;SDS011;10933;50.754;11.508;2023-07-30T03:54:44;3.35;;;3.15;;
21543;SDS011;10933;50.754;11.508;2023-07-30T03:57:10;3.42;;;3.22;;
21543;SDS011;10933;50.754;11.508;2023-07-30T03:59:36;3.80;;;3.55;;
21543;SDS011;10933;50.754;11.508;2023-07-30T04:02:02;3.17;;;2.97;;
21543;SDS011;10933;50.754;11.508;2023-07-30T04:04:29;3.65;;;3.45;;
21543;SDS011;10933;50.754;11.508;2023-07-30T04:06:55;4.22;;;3.20;;
21543;SDS011;10933;50.754;11.508;2023-07-30T04:09:21;4.15;;;3.95;;
21543;SDS011;10933;50.754;11.508;2023-07-30T04:11:47;3.75;;;3.45;;
21543;SDS011;10933;50.754;11.508;2023-07-30T04:14:13;3.60;;;3.40;;
21543;SDS011;10933;50.754;11.508;2023-07-30T04:16:39;3.60;;;3.40;;
21543;SDS011;10933;50.754;11.508;2023-07-30T04:19:07;3.30;;;3.10;;
21543;SDS011;10933;50.754;11.508;2023-07-30T04:21:33;3.13;;;2.92;;
21543;SDS011;10933;50.754;11.508;2023-07-30T04:23:59;4.80;;;3.28;;
21543;SDS011;10933;50.754;11.508;2023-07-30T04:26:26;3.63;;;3.42;;
21543;SDS011;10933;50.754;11.508;2023-07-30T04:28:52;4.38;;;3.97;;
21543;SDS011;10933;50.754;11.508;2023-07-30T04:31:18;3.63;;;3.42;;
21543;SDS011;10933;50.754;11.508;2023-07-30T04:33:44;4.15;;;3.08;;
21543;SDS011;10933;50.754;11.508;2023-07-30T04:36:10;3.40;;;3.20;;
21543;SDS011;10933;50.754;11.508;2023-07-30T04:38:36;4.15;;;3.92;;
21543;SDS011;10933;50.754;11.508;2023-07-30T04:41:02;4.00;;;3.80;;
21543;SDS011;10933;50.754;11.508;2023-07-30T04:43:28;3.92;;;3.72;;
21543;SDS011;10933;50.754;11.508;2023-07-30T04:45:54;3.30;;;3.10;;
21543;SDS011;10933;50.754;11.508;2023-07-30T04:48:20;2.92;;;2.72;;
21543;SDS011;10933;50.754;11.508;2023-07-30T04:50:47;3.78;;;3.47;;
21543;SDS011;10933;50.754;11.508;2023-07-30T04:53:13;3.10;;;2.95;;
21543;SDS011;10933;50.754;11.508;2023-07-30T04:55:39;3.40;;;3.20;;
21543;SDS011;10933;50.754;11.508;2023-07-30T04:58:05;3.20;;;3.00;;
21543;SDS011;10933;50.754;11.508;2023-07-30T05:00:31;5.20;;;2.90;;
21543;SDS011;10933;50.754;11.508;2023-07-30T05:02:57;3.50;;;3.30;;
21543;SDS011;10933;50.754;11.508;2023-07-30T05:05:23;3.20;;;3.00;;
21543;SDS011;10933;50.754;11.508;2023-07-30T05:07:49;3.65;;;3.45;;
21543;SDS011;10933;50.754;11.508;2023-07-30T05:10:15;2.97;;;2.78;;
21543;SDS011;10933;50.754;11.508;2023-07-30T05:12:41;3.28;;;3.08;;
21543;SDS011;10933;50.754;11.508;2023-07-30T05:15:08;2.83;;;2.63;;
21543;SDS011;10933;50.754;11.508;2023-07-30T05:17:34;2.60;;;2.50;;
21543;SDS011;10933;50.754;11.508;2023-07-30T05:20:00;2.70;;;2.60;;
21543;SDS011;10933;50.754;11.508;2023-07-30T05:22:26;2.67;;;2.33;;
21543;SDS011;10933;50.754;11.508;2023-07-30T05:24:52;2.38;;;2.28;;
21543;SDS011;10933;50.754;11.508;2023-07-30T05:27:19;3.45;;;2.25;;
21543;SDS011;10933;50.754;11.508;2023-07-30T05:29:45;2.00;;;1.90;;
21543;SDS011;10933;50.754;11.508;2023-07-30T05:32:11;2.15;;;2.05;;
21543;SDS011;10933;50.754;11.508;2023-07-30T05:34:37;2.05;;;1.95;;
21543;SDS011;10933;50.754;11.508;2023-07-30T05:37:03;2.17;;;1.75;;
21543;SDS011;10933;50.754;11.508;2023-07-30T05:39:29;2.10;;;2.00;;
21543;SDS011;10933;50.754;11.508;2023-07-30T05:41:56;2.88;;;1.77;;
21543;SDS011;10933;50.754;11.508;2023-07-30T05:44:22;3.13;;;1.92;;
21543;SDS011;10933;50.754;11.508;2023-07-30T05:46:48;2.08;;;1.88;;
21543;SDS011;10933;50.754;11.508;2023-07-30T05:49:14;1.50;;;1.40;;
21543;SDS011;10933;50.754;11.508;2023-07-30T05:51:40;4.05;;;1.67;;
21543;SDS011;10933;50.754;11.508;2023-07-30T05:54:06;2.08;;;1.88;;
21543;SDS011;10933;50.754;11.508;2023-07-30T05:56:32;1.90;;;1.80;;
21543;SDS011;10933;50.754;11.508;2023-07-30T05:58:58;2.00;;;1.90;;
21543;SDS011;10933;50.754;11.508;2023-07-30T06:01:24;5.57;;;1.90;;
21543;SDS011;10933;50.754;11.508;2023-07-30T06:03:50;2.10;;;2.00;;
21543;SDS011;10933;50.754;11.508;2023-07-30T06:06:17;1.92;;;1.83;;
21543;SDS011;10933;50.754;11.508;2023-07-30T06:08:44;3.47;;;2.20;;
21543;SDS011;10933;50.754;11.508;2023-07-30T06:11:10;2.10;;;2.00;;
21543;SDS011;10933;50.754;11.508;2023-07-30T06:13:36;1.90;;;1.80;;
21543;SDS011;10933;50.754;11.508;2023-07-30T06:16:03;2.10;;;2.00;;
21543;SDS011;10933;50.754;11.508;2023-07-30T06:18:29;1.80;;;1.70;;
21543;SDS011;10933;50.754;11.508;2023-07-30T06:20:55;1.85;;;1.75;;
21543;SDS011;10933;50.754;11.508;2023-07-30T06:23:21;1.75;;;1.60;;
21543;SDS011;10933;50.754;11.508;2023-07-30T06:25:47;2.83;;;2.65;;
21543;SDS011;10933;50.754;11.508;2023-07-30T06:28:13;1.98;;;1.88;;
21543;SDS011;10933;50.754;11.508;2023-07-30T06:30:39;2.25;;;2.15;;
21543;SDS011;10933;50.754;11.508;2023-07-30T06:33:05;3.08;;;2.97;;
21543;SDS011;10933;50.754;11.508;2023-07-30T06:35:31;3.58;;;3.28;;
21543;SDS011;10933;50.754;11.508;2023-07-30T06:37:57;1.80;;;1.70;;
21543;SDS011;10933;50.754;11.508;2023-07-30T06:40:23;1.83;;;1.73;;
21543;SDS011;10933;50.754;11.508;2023-07-30T06:42:50;2.38;;;2.28;;
21543;SDS011;10933;50.754;11.508;2023-07-30T06:45:16;1.77;;;1.67;;
21543;SDS011;10933;50.754;11.508;2023-07-30T06:47:42;1.98;;;1.88;;
21543;SDS011;10933;50.754;11.508;2023-07-30T06:50:08;1.70;;;1.60;;
21543;SDS011;10933;50.754;11.508;2023-07-30T06:52:34;1.50;;;1.40;;
21543;SDS011;10933;50.754;11.508;2023-07-30T06:55:01;1.58;;;1.38;;
21543;SDS011;10933;50.754;11.508;2023-07-30T06:57:28;1.45;;;1.38;;
21543;SDS011;10933;50.754;11.508;2023-07-30T06:59:55;1.58;;;1.48;;
21543;SDS011;10933;50.754;11.508;2023-07-30T07:02:22;5.57;;;2.10;;
21543;SDS011;10933;50.754;11.508;2023-07-30T07:04:49;1.48;;;1.40;;
21543;SDS011;10933;50.754;11.508;2023-07-30T07:07:15;2.10;;;1.63;;
21543;SDS011;10933;50.754;11.508;2023-07-30T07:09:41;2.15;;;1.95;;
21543;SDS011;10933;50.754;11.508;2023-07-30T07:12:08;2.10;;;1.52;;
21543;SDS011;10933;50.754;11.508;2023-07-30T07:14:34;1.52;;;1.42;;
21543;SDS011;10933;50.754;11.508;2023-07-30T07:17:00;3.60;;;1.23;;
21543;SDS011;10933;50.754;11.508;2023-07-30T07:19:26;1.10;;;1.08;;
21543;SDS011;10933;50.754;11.508;2023-07-30T07:21:52;1.40;;;1.30;;
21543;SDS011;10933;50.754;11.508;2023-07-30T07:24:18;0.93;;;0.93;;
21543;SDS011;10933;50.754;11.508;2023-07-30T07:26:44;1.05;;;0.95;;
21543;SDS011;10933;50.754;11.508;2023-07-30T07:29:11;5.28;;;4.97;;
21543;SDS011;10933;50.754;11.508;2023-07-30T07:31:39;1.50;;;1.40;;
21543;SDS011;10933;50.754;11.508;2023-07-30T07:34:06;0.90;;;0.90;;
21543;SDS011;10933;50.754;11.508;2023-07-30T07:36:39;0.80;;;0.80;;
21543;SDS011;10933;50.754;11.508;2023-07-30T07:39:08;0.70;;;0.70;;
21543;SDS011;10933;50.754;11.508;2023-07-30T07:41:34;1.15;;;1.15;;
21543;SDS011;10933;50.754;11.508;2023-07-30T07:44:00;0.70;;;0.70;;
21543;SDS011;10933;50.754;11.508;2023-07-30T07:46:27;0.70;;;0.70;;
21543;SDS011;10933;50.754;11.508;2023-07-30T07:48:53;1.52;;;1.42;;
21543;SDS011;10933;50.754;11.508;2023-07-30T07:51:25;1.10;;;1.10;;
21543;SDS011;10933;50.754;11.508;2023-07-30T07:53:51;0.80;;;0.80;;
21543;SDS011;10933;50.754;11.508;2023-07-30T07:56:21;0.65;;;0.65;;
21543;SDS011;10933;50.754;11.508;2023-07-30T07:58:50;0.70;;;0.70;;
21543;SDS011;10933;50.754;11.508;2023-07-30T08:01:16;0.88;;;0.88;;
21543;SDS011;10933;50.754;11.508;2023-07-30T08:03:42;0.50;;;0.50;;
21543;SDS011;10933;50.754;11.508;2023-07-30T08:06:09;0.73;;;0.73;;
21543;SDS011;10933;50.754;11.508;2023-07-30T08:08:35;0.68;;;0.60;;
21543;SDS011;10933;50.754;11.508;2023-07-30T08:11:05;0.60;;;0.60;;
21543;SDS011;10933;50.754;11.508;2023-07-30T08:13:32;1.58;;;0.50;;
21543;SDS011;10933;50.754;11.508;2023-07-30T08:16:02;0.60;;;0.60;;
21543;SDS011;10933;50.754;11.508;2023-07-30T08:18:28;0.68;;;0.50;;
21543;SDS011;10933;50.754;11.508;2023-07-30T08:20:54;0.50;;;0.50;;
21543;SDS011;10933;50.754;11.508;2023-07-30T08:23:20;0.40;;;0.40;;
21543;SDS011;10933;50.754;11.508;2023-07-30T08:25:47;0.35;;;0.35;;
21543;SDS011;10933;50.754;11.508;2023-07-30T08:28:14;0.35;;;0.35;;
21543;SDS011;10933;50.754;11.508;2023-07-30T08:30:40;0.40;;;0.40;;
21543;SDS011;10933;50.754;11.508;2023-07-30T08:33:07;0.60;;;0.50;;
21543;SDS011;10933;50.754;11.508;2023-07-30T08:35:33;0.50;;;0.50;;
21543;SDS011;10933;50.754;11.508;2023-07-30T08:37:59;0.43;;;0.43;;
21543;SDS011;10933;50.754;11.508;2023-07-30T08:40:25;0.57;;;0.57;;
21543;SDS011;10933;50.754;11.508;2023-07-30T08:42:52;0.60;;;0.50;;
21543;SDS011;10933;50.754;11.508;2023-07-30T08:45:19;0.50;;;0.50;;
21543;SDS011;10933;50.754;11.508;2023-07-30T08:47:46;0.73;;;0.70;;
21543;SDS011;10933;50.754;11.508;2023-07-30T08:50:13;12.18;;;11.48;;
21543;SDS011;10933;50.754;11.508;2023-07-30T08:52:39;0.60;;;0.60;;
21543;SDS011;10933;50.754;11.508;2023-07-30T08:55:06;0.30;;;0.30;;
21543;SDS011;10933;50.754;11.508;2023-07-30T08:57:33;0.40;;;0.40;;
21543;SDS011;10933;50.754;11.508;2023-07-30T09:00:03;0.70;;;0.50;;
21543;SDS011;10933;50.754;11.508;2023-07-30T09:05:10;0.45;;;0.45;;
21543;SDS011;10933;50.754;11.508;2023-07-30T09:07:36;0.73;;;0.32;;
21543;SDS011;10933;50.754;11.508;2023-07-30T09:10:02;0.45;;;0.45;;
21543;SDS011;10933;50.754;11.508;2023-07-30T09:12:32;0.30;;;0.30;;
21543;SDS011;10933;50.754;11.508;2023-07-30T09:15:00;0.28;;;0.28;;
21543;SDS011;10933;50.754;11.508;2023-07-30T09:17:32;0.30;;;0.30;;
21543;SDS011;10933;50.754;11.508;2023-07-30T09:20:00;0.38;;;0.38;;
21543;SDS011;10933;50.754;11.508;2023-07-30T09:22:30;0.40;;;0.40;;
21543;SDS011;10933;50.754;11.508;2023-07-30T09:25:07;0.40;;;0.40;;
21543;SDS011;10933;50.754;11.508;2023-07-30T09:27:33;0.95;;;0.50;;
21543;SDS011;10933;50.754;11.508;2023-07-30T09:30:00;0.50;;;0.50;;
21543;SDS011;10933;50.754;11.508;2023-07-30T09:32:32;0.40;;;0.40;;
21543;SDS011;10933;50.754;11.508;2023-07-30T09:35:09;0.40;;;0.40;;
21543;SDS011;10933;50.754;11.508;2023-07-30T09:37:36;2.05;;;0.60;;
21543;SDS011;10933;50.754;11.508;2023-07-30T09:40:07;0.60;;;0.60;;
21543;SDS011;10933;50.754;11.508;2023-07-30T09:42:35;3.40;;;3.20;;
21543;SDS011;10933;50.754;11.508;2023-07-30T09:45:04;0.70;;;0.57;;
21543;SDS011;10933;50.754;11.508;2023-07-30T09:47:33;0.50;;;0.50;;
21543;SDS011;10933;50.754;11.508;2023-07-30T09:50:02;0.70;;;0.70;;
21543;SDS011;10933;50.754;11.508;2023-07-30T09:52:29;0.47;;;0.47;;
21543;SDS011;10933;50.754;11.508;2023-07-30T09:54:57;0.40;;;0.40;;
21543;SDS011;10933;50.754;11.508;2023-07-30T09:57:24;0.50;;;0.50;;
21543;SDS011;10933;50.754;11.508;2023-07-30T09:59:50;0.40;;;0.40;;
21543;SDS011;10933;50.754;11.508;2023-07-30T10:02:18;0.43;;;0.43;;
21543;SDS011;10933;50.754;11.508;2023-07-30T10:04:46;0.40;;;0.40;;
21543;SDS011;10933;50.754;11.508;2023-07-30T10:07:16;0.40;;;0.40;;
21543;SDS011;10933;50.754;11.508;2023-07-30T10:09:45;0.40;;;0.40;;
21543;SDS011;10933;50.754;11.508;2023-07-30T10:12:16;0.40;;;0.40;;
21543;SDS011;10933;50.754;11.508;2023-07-30T10:14:48;24.33;;;0.70;;
21543;SDS011;10933;50.754;11.508;2023-07-30T10:17:14;0.20;;;0.20;;
21543;SDS011;10933;50.754;11.508;2023-07-30T10:19:43;0.30;;;0.30;;
21543;SDS011;10933;50.754;11.508;2023-07-30T10:25:16;0.45;;;0.45;;
21543;SDS011;10933;50.754;11.508;2023-07-30T10:27:38;0.55;;;0.40;;
21543;SDS011;10933;50.754;11.508;2023-07-30T10:30:09;0.80;;;0.38;;
21543;SDS011;10933;50.754;11.508;2023-07-30T10:35:41;0.30;;;0.30;;
21543;SDS011;10933;50.754;11.508;2023-07-30T10:38:17;0.30;;;0.30;;
21543;SDS011;10933;50.754;11.508;2023-07-30T10:43:40;0.40;;;0.40;;
21543;SDS011;10933;50.754;11.508;2023-07-30T10:46:11;0.32;;;0.32;;
21543;SDS011;10933;50.754;11.508;2023-07-30T10:48:42;0.40;;;0.40;;
21543;SDS011;10933;50.754;11.508;2023-07-30T10:51:10;0.25;;;0.25;;
21543;SDS011;10933;50.754;11.508;2023-07-30T10:53:38;0.40;;;0.40;;
21543;SDS011;10933;50.754;11.508;2023-07-30T10:56:07;0.25;;;0.25;;
21543;SDS011;10933;50.754;11.508;2023-07-30T10:58:35;0.40;;;0.40;;
21543;SDS011;10933;50.754;11.508;2023-07-30T11:01:06;0.70;;;0.50;;
21543;SDS011;10933;50.754;11.508;2023-07-30T11:03:33;0.40;;;0.40;;
21543;SDS011;10933;50.754;11.508;2023-07-30T11:06:01;4.25;;;0.40;;
21543;SDS011;10933;50.754;11.508;2023-07-30T11:11:01;0.40;;;0.40;;
21543;SDS011;10933;50.754;11.508;2023-07-30T11:13:28;0.45;;;0.45;;
21543;SDS011;10933;50.754;11.508;2023-07-30T11:15:54;0.40;;;0.40;;
21543;SDS011;10933;50.754;11.508;2023-07-30T11:18:20;0.50;;;0.50;;
21543;SDS011;10933;50.754;11.508;2023-07-30T11:20:46;0.40;;;0.40;;
21543;SDS011;10933;50.754;11.508;2023-07-30T11:23:21;0.50;;;0.50;;
21543;SDS011;10933;50.754;11.508;2023-07-30T11:25:49;0.43;;;0.40;;
21543;SDS011;10933;50.754;11.508;2023-07-30T11:31:05;0.40;;;0.40;;
21543;SDS011;10933;50.754;11.508;2023-07-30T11:33:33;0.52;;;0.50;;
21543;SDS011;10933;50.754;11.508;2023-07-30T11:36:02;0.40;;;0.40;;
21543;SDS011;10933;50.754;11.508;2023-07-30T11:38:29;0.40;;;0.40;;
21543;SDS011;10933;50.754;11.508;2023-07-30T11:40:56;1.75;;;0.50;;
21543;SDS011;10933;50.754;11.508;2023-07-30T11:43:23;0.40;;;0.40;;
21543;SDS011;10933;50.754;11.508;2023-07-30T11:46:05;1.80;;;0.70;;
21543;SDS011;10933;50.754;11.508;2023-07-30T11:48:36;0.50;;;0.50;;
21543;SDS011;10933;50.754;11.508;2023-07-30T11:51:03;0.57;;;0.40;;
21543;SDS011;10933;50.754;11.508;2023-07-30T11:53:49;0.40;;;0.40;;
21543;SDS011;10933;50.754;11.508;2023-07-30T11:58:47;0.32;;;0.32;;
21543;SDS011;10933;50.754;11.508;2023-07-30T12:01:15;0.40;;;0.40;;
21543;SDS011;10933;50.754;11.508;2023-07-30T12:03:42;0.40;;;0.40;;
21543;SDS011;10933;50.754;11.508;2023-07-30T12:06:12;0.50;;;0.40;;
21543;SDS011;10933;50.754;11.508;2023-07-30T12:08:38;6.43;;;0.65;;
21543;SDS011;10933;50.754;11.508;2023-07-30T12:11:05;0.50;;;0.50;;
21543;SDS011;10933;50.754;11.508;2023-07-30T12:13:32;0.40;;;0.40;;
21543;SDS011;10933;50.754;11.508;2023-07-30T12:15:59;0.57;;;0.50;;
21543;SDS011;10933;50.754;11.508;2023-07-30T12:18:26;0.43;;;0.43;;
21543;SDS011;10933;50.754;11.508;2023-07-30T12:20:54;0.40;;;0.40;;
21543;SDS011;10933;50.754;11.508;2023-07-30T12:23:21;1.00;;;0.60;;
21543;SDS011;10933;50.754;11.508;2023-07-30T12:25:47;0.88;;;0.40;;
21543;SDS011;10933;50.754;11.508;2023-07-30T12:28:13;0.50;;;0.40;;
21543;SDS011;10933;50.754;11.508;2023-07-30T12:30:39;0.50;;;0.50;;
21543;SDS011;10933;50.754;11.508;2023-07-30T12:33:05;0.45;;;0.45;;
21543;SDS011;10933;50.754;11.508;2023-07-30T12:35:32;0.50;;;0.50;;
21543;SDS011;10933;50.754;11.508;2023-07-30T12:37:59;0.70;;;0.40;;
21543;SDS011;10933;50.754;11.508;2023-07-30T12:40:25;0.95;;;0.60;;
21543;SDS011;10933;50.754;11.508;2023-07-30T12:42:54;0.52;;;0.50;;
21543;SDS011;10933;50.754;11.508;2023-07-30T12:45:20;0.50;;;0.50;;
21543;SDS011;10933;50.754;11.508;2023-07-30T12:47:47;0.50;;;0.50;;
21543;SDS011;10933;50.754;11.508;2023-07-30T12:50:13;0.50;;;0.50;;
21543;SDS011;10933;50.754;11.508;2023-07-30T12:52:39;1.77;;;0.50;;
21543;SDS011;10933;50.754;11.508;2023-07-30T12:55:05;0.60;;;0.60;;
21543;SDS011;10933;50.754;11.508;2023-07-30T12:57:32;0.60;;;0.60;;
21543;SDS011;10933;50.754;11.508;2023-07-30T12:59:58;0.40;;;0.40;;
21543;SDS011;10933;50.754;11.508;2023-07-30T13:02:24;0.60;;;0.60;;
21543;SDS011;10933;50.754;11.508;2023-07-30T13:04:50;0.70;;;0.65;;
21543;SDS011;10933;50.754;11.508;2023-07-30T13:07:16;0.88;;;0.63;;
21543;SDS011;10933;50.754;11.508;2023-07-30T13:09:42;1.00;;;0.80;;
21543;SDS011;10933;50.754;11.508;2023-07-30T13:12:10;0.60;;;0.60;;
21543;SDS011;10933;50.754;11.508;2023-07-30T13:14:36;0.82;;;0.60;;
21543;SDS011;10933;50.754;11.508;2023-07-30T13:17:03;0.65;;;0.65;;
21543;SDS011;10933;50.754;11.508;2023-07-30T13:19:29;1.13;;;0.70;;
21543;SDS011;10933;50.754;11.508;2023-07-30T13:21:57;0.60;;;0.50;;
21543;SDS011;10933;50.754;11.508;2023-07-30T13:24:23;1.30;;;0.85;;
21543;SDS011;10933;50.754;11.508;2023-07-30T13:26:49;0.60;;;0.60;;
21543;SDS011;10933;50.754;11.508;2023-07-30T13:29:15;0.82;;;0.82;;
21543;SDS011;10933;50.754;11.508;2023-07-30T13:31:41;0.73;;;0.70;;
21543;SDS011;10933;50.754;11.508;2023-07-30T13:34:07;0.80;;;0.80;;
21543;SDS011;10933;50.754;11.508;2023-07-30T13:36:34;0.80;;;0.80;;
21543;SDS011;10933;50.754;11.508;2023-07-30T13:39:00;0.68;;;0.68;;
21543;SDS011;10933;50.754;11.508;2023-07-30T13:41:26;0.50;;;0.50;;
21543;SDS011;10933;50.754;11.508;2023-07-30T13:43:52;0.52;;;0.45;;
21543;SDS011;10933;50.754;11.508;2023-07-30T13:46:18;0.52;;;0.50;;
21543;SDS011;10933;50.754;11.508;2023-07-30T13:48:44;0.32;;;0.32;;
21543;SDS011;10933;50.754;11.508;2023-07-30T13:51:10;0.40;;;0.40;;
21543;SDS011;10933;50.754;11.508;2023-07-30T13:53:36;1.00;;;0.30;;
21543;SDS011;10933;50.754;11.508;2023-07-30T13:56:06;0.10;;;0.10;;
21543;SDS011;10933;50.754;11.508;2023-07-30T13:58:32;0.30;;;0.30;;
21543;SDS011;10933;50.754;11.508;2023-07-30T14:00:58;0.63;;;0.20;;
21543;SDS011;10933;50.754;11.508;2023-07-30T14:03:24;0.20;;;0.20;;
21543;SDS011;10933;50.754;11.508;2023-07-30T14:05:50;2.00;;;0.20;;
21543;SDS011;10933;50.754;11.508;2023-07-30T14:08:16;0.20;;;0.20;;
21543;SDS011;10933;50.754;11.508;2023-07-30T14:10:42;0.20;;;0.20;;
21543;SDS011;10933;50.754;11.508;2023-07-30T14:13:08;0.40;;;0.20;;
21543;SDS011;10933;50.754;11.508;2023-07-30T14:15:34;0.30;;;0.30;;
21543;SDS011;10933;50.754;11.508;2023-07-30T14:18:00;0.30;;;0.30;;
21543;SDS011;10933;50.754;11.508;2023-07-30T14:20:27;0.52;;;0.30;;
21543;SDS011;10933;50.754;11.508;2023-07-30T14:22:53;0.30;;;0.30;;
21543;SDS011;10933;50.754;11.508;2023-07-30T14:25:19;0.60;;;0.30;;
21543;SDS011;10933;50.754;11.508;2023-07-30T14:27:45;0.45;;;0.30;;
21543;SDS011;10933;50.754;11.508;2023-07-30T14:30:11;0.70;;;0.50;;
21543;SDS011;10933;50.754;11.508;2023-07-30T14:32:37;1.60;;;0.40;;
21543;SDS011;10933;50.754;11.508;2023-07-30T14:35:03;0.57;;;0.40;;
21543;SDS011;10933;50.754;11.508;2023-07-30T14:37:30;0.50;;;0.40;;
21543;SDS011;10933;50.754;11.508;2023-07-30T14:39:56;0.40;;;0.30;;
21543;SDS011;10933;50.754;11.508;2023-07-30T14:42:22;0.40;;;0.40;;
21543;SDS011;10933;50.754;11.508;2023-07-30T14:44:48;0.60;;;0.60;;
21543;SDS011;10933;50.754;11.508;2023-07-30T14:47:14;0.70;;;0.70;;
21543;SDS011;10933;50.754;11.508;2023-07-30T14:49:40;1.02;;;0.70;;